sensor_id;sensor_type;location;lat;lon;timestamp;temperature;humidity
23873;DHT22;42884;50.718;4.630;2023-12-07T00:00:08;4.10;99.90
23873;DHT22;42884;50.718;4.630;2023-12-07T00:02:34;4.20;99.90
23873;DHT22;42884;50.718;4.630;2023-12-07T00:05:00;4.20;99.90
23873;DHT22;42884;50.718;4.630;2023-12-07T00:07:25;4.30;99.90
23873;DHT22;42884;50.718;4.630;2023-12-07T00:09:51;4.20;99.90
23873;DHT22;42884;50.718;4.630;2023-12-07T00:12:17;4.00;99.90
23873;DHT22;42884;50.718;4.630;2023-12-07T00:14:43;4.00;99.90
23873;DHT22;42884;50.718;4.630;2023-12-07T00:17:08;4.00;99.90
23873;DHT22;42884;50.718;4.630;2023-12-07T00:19:34;4.10;99.90
23873;DHT22;42884;50.718;4.630;2023-12-07T00:22:00;4.20;99.90
23873;DHT22;42884;50.718;4.630;2023-12-07T00:24:25;4.30;99.90
23873;DHT22;42884;50.718;4.630;2023-12-07T00:26:51;4.30;99.90
23873;DHT22;42884;50.718;4.630;2023-12-07T00:29:16;4.30;99.90
23873;DHT22;42884;50.718;4.630;2023-12-07T00:31:42;4.10;99.90
23873;DHT22;42884;50.718;4.630;2023-12-07T00:34:09;4.00;99.90
23873;DHT22;42884;50.718;4.630;2023-12-07T00:36:35;4.10;99.90
23873;DHT22;42884;50.718;4.630;2023-12-07T00:39:00;4.10;99.90
23873;DHT22;42884;50.718;4.630;2023-12-07T00:41:26;4.10;99.90
23873;DHT22;42884;50.718;4.630;2023-12-07T00:43:52;4.10;99.90
23873;DHT22;42884;50.718;4.630;2023-12-07T00:46:17;4.20;99.90
23873;DHT22;42884;50.718;4.630;2023-12-07T00:48:43;4.20;99.90
23873;DHT22;42884;50.718;4.630;2023-12-07T00:51:09;4.30;99.90
23873;DHT22;42884;50.718;4.630;2023-12-07T00:53:34;4.40;99.90
23873;DHT22;42884;50.718;4.630;2023-12-07T00:56:02;4.40;99.90
23873;DHT22;42884;50.718;4.630;2023-12-07T00:58:27;4.20;99.90
23873;DHT22;42884;50.718;4.630;2023-12-07T01:00:53;4.20;99.90
23873;DHT22;42884;50.718;4.630;2023-12-07T01:03:19;4.10;99.90
23873;DHT22;42884;50.718;4.630;2023-12-07T01:05:45;4.20;99.90
23873;DHT22;42884;50.718;4.630;2023-12-07T01:08:10;4.30;99.90
23873;DHT22;42884;50.718;4.630;2023-12-07T01:10:36;4.40;99.90
23873;DHT22;42884;50.718;4.630;2023-12-07T01:13:02;4.50;99.90
23873;DHT22;42884;50.718;4.630;2023-12-07T01:15:27;4.60;99.90
23873;DHT22;42884;50.718;4.630;2023-12-07T01:17:53;4.60;99.90
23873;DHT22;42884;50.718;4.630;2023-12-07T01:20:19;4.60;99.90
23873;DHT22;42884;50.718;4.630;2023-12-07T01:22:45;4.60;99.90
23873;DHT22;42884;50.718;4.630;2023-12-07T01:25:11;4.50;99.90
23873;DHT22;42884;50.718;4.630;2023-12-07T01:27:37;4.50;99.90
23873;DHT22;42884;50.718;4.630;2023-12-07T01:30:03;4.40;99.90
23873;DHT22;42884;50.718;4.630;2023-12-07T01:32:29;4.40;99.90
23873;DHT22;42884;50.718;4.630;2023-12-07T01:34:54;4.40;99.90
23873;DHT22;42884;50.718;4.630;2023-12-07T01:37:20;4.20;99.90
23873;DHT22;42884;50.718;4.630;2023-12-07T01:39:46;4.20;99.90
23873;DHT22;42884;50.718;4.630;2023-12-07T01:42:12;4.30;99.90
23873;DHT22;42884;50.718;4.630;2023-12-07T01:44:38;4.30;99.90
23873;DHT22;42884;50.718;4.630;2023-12-07T01:47:04;4.40;99.90
23873;DHT22;42884;50.718;4.630;2023-12-07T01:49:30;4.30;99.90
23873;DHT22;42884;50.718;4.630;2023-12-07T01:51:56;4.40;99.90
23873;DHT22;42884;50.718;4.630;2023-12-07T01:54:22;4.60;99.90
23873;DHT22;42884;50.718;4.630;2023-12-07T01:56:47;4.60;99.90
23873;DHT22;42884;50.718;4.630;2023-12-07T01:59:13;4.60;99.90
23873;DHT22;42884;50.718;4.630;2023-12-07T02:01:39;4.50;99.90
23873;DHT22;42884;50.718;4.630;2023-12-07T02:04:05;4.30;99.90
23873;DHT22;42884;50.718;4.630;2023-12-07T02:06:30;4.30;99.90
23873;DHT22;42884;50.718;4.630;2023-12-07T02:08:56;4.50;99.90
23873;DHT22;42884;50.718;4.630;2023-12-07T02:11:22;4.40;99.90
23873;DHT22;42884;50.718;4.630;2023-12-07T02:13:47;4.50;99.90
23873;DHT22;42884;50.718;4.630;2023-12-07T02:23:49;4.80;99.90
23873;DHT22;42884;50.718;4.630;2023-12-07T02:26:16;4.90;99.90
23873;DHT22;42884;50.718;4.630;2023-12-07T02:28:43;4.90;99.90
23873;DHT22;42884;50.718;4.630;2023-12-07T02:31:09;4.90;99.90
23873;DHT22;42884;50.718;4.630;2023-12-07T02:33:34;4.90;99.90
23873;DHT22;42884;50.718;4.630;2023-12-07T02:36:00;4.90;99.90
23873;DHT22;42884;50.718;4.630;2023-12-07T02:38:26;4.80;99.90
23873;DHT22;42884;50.718;4.630;2023-12-07T02:40:54;4.80;99.90
23873;DHT22;42884;50.718;4.630;2023-12-07T02:43:20;4.90;99.90
23873;DHT22;42884;50.718;4.630;2023-12-07T02:45:46;4.50;99.90
23873;DHT22;42884;50.718;4.630;2023-12-07T02:48:12;4.60;99.90
23873;DHT22;42884;50.718;4.630;2023-12-07T02:50:37;4.70;99.90
23873;DHT22;42884;50.718;4.630;2023-12-07T02:53:03;4.80;99.90
23873;DHT22;42884;50.718;4.630;2023-12-07T02:55:28;4.90;99.90
23873;DHT22;42884;50.718;4.630;2023-12-07T02:57:54;4.80;99.90
23873;DHT22;42884;50.718;4.630;2023-12-07T03:00:19;4.80;99.90
23873;DHT22;42884;50.718;4.630;2023-12-07T03:02:47;4.90;99.90
23873;DHT22;42884;50.718;4.630;2023-12-07T03:05:13;4.90;99.90
23873;DHT22;42884;50.718;4.630;2023-12-07T03:07:39;4.90;99.90
23873;DHT22;42884;50.718;4.630;2023-12-07T03:10:04;4.80;99.90
23873;DHT22;42884;50.718;4.630;2023-12-07T03:12:30;4.80;99.90
23873;DHT22;42884;50.718;4.630;2023-12-07T03:14:56;4.60;99.90
23873;DHT22;42884;50.718;4.630;2023-12-07T03:17:22;4.50;99.90
23873;DHT22;42884;50.718;4.630;2023-12-07T03:19:47;4.50;99.90
23873;DHT22;42884;50.718;4.630;2023-12-07T03:22:13;4.40;99.90
23873;DHT22;42884;50.718;4.630;2023-12-07T03:24:43;4.50;99.90
23873;DHT22;42884;50.718;4.630;2023-12-07T03:27:09;4.60;99.90
23873;DHT22;42884;50.718;4.630;2023-12-07T03:29:34;4.60;99.90
23873;DHT22;42884;50.718;4.630;2023-12-07T03:32:00;4.60;99.90
23873;DHT22;42884;50.718;4.630;2023-12-07T03:34:26;4.60;99.90
23873;DHT22;42884;50.718;4.630;2023-12-07T03:36:51;4.60;99.90
23873;DHT22;42884;50.718;4.630;2023-12-07T03:39:17;4.60;99.90
23873;DHT22;42884;50.718;4.630;2023-12-07T03:41:48;4.50;99.90
23873;DHT22;42884;50.718;4.630;2023-12-07T03:44:14;4.40;99.90
23873;DHT22;42884;50.718;4.630;2023-12-07T03:46:39;4.60;99.90
23873;DHT22;42884;50.718;4.630;2023-12-07T03:49:05;4.50;99.90
23873;DHT22;42884;50.718;4.630;2023-12-07T03:51:31;4.50;99.90
23873;DHT22;42884;50.718;4.630;2023-12-07T03:53:56;4.50;99.90
23873;DHT22;42884;50.718;4.630;2023-12-07T03:56:25;4.50;99.90
23873;DHT22;42884;50.718;4.630;2023-12-07T03:58:51;4.40;99.90
23873;DHT22;42884;50.718;4.630;2023-12-07T04:01:17;4.40;99.90
23873;DHT22;42884;50.718;4.630;2023-12-07T04:03:42;4.50;99.90
23873;DHT22;42884;50.718;4.630;2023-12-07T04:06:08;4.60;99.90
23873;DHT22;42884;50.718;4.630;2023-12-07T04:08:34;4.50;99.90
23873;DHT22;42884;50.718;4.630;2023-12-07T04:11:00;4.60;99.90
23873;DHT22;42884;50.718;4.630;2023-12-07T04:13:25;4.70;99.90
23873;DHT22;42884;50.718;4.630;2023-12-07T04:15:51;4.60;99.90
23873;DHT22;42884;50.718;4.630;2023-12-07T04:18:17;4.60;99.90
23873;DHT22;42884;50.718;4.630;2023-12-07T04:20:43;4.50;99.90
23873;DHT22;42884;50.718;4.630;2023-12-07T04:23:08;4.60;99.90
23873;DHT22;42884;50.718;4.630;2023-12-07T04:25:34;4.60;99.90
23873;DHT22;42884;50.718;4.630;2023-12-07T04:27:59;4.60;99.90
23873;DHT22;42884;50.718;4.630;2023-12-07T04:30:25;4.60;99.90
23873;DHT22;42884;50.718;4.630;2023-12-07T04:32:50;4.70;99.90
23873;DHT22;42884;50.718;4.630;2023-12-07T04:35:16;4.70;99.90
23873;DHT22;42884;50.718;4.630;2023-12-07T04:37:42;4.60;99.90
23873;DHT22;42884;50.718;4.630;2023-12-07T04:40:07;4.50;99.90
23873;DHT22;42884;50.718;4.630;2023-12-07T04:42:33;4.60;99.90
23873;DHT22;42884;50.718;4.630;2023-12-07T04:44:59;4.60;99.90
23873;DHT22;42884;50.718;4.630;2023-12-07T04:47:24;4.70;99.90
23873;DHT22;42884;50.718;4.630;2023-12-07T04:49:50;4.70;99.90
23873;DHT22;42884;50.718;4.630;2023-12-07T04:52:16;4.60;99.90
23873;DHT22;42884;50.718;4.630;2023-12-07T04:54:41;4.50;99.90
23873;DHT22;42884;50.718;4.630;2023-12-07T04:57:07;4.60;99.90
23873;DHT22;42884;50.718;4.630;2023-12-07T04:59:32;4.60;99.90
23873;DHT22;42884;50.718;4.630;2023-12-07T05:01:58;4.60;99.90
23873;DHT22;42884;50.718;4.630;2023-12-07T05:04:24;4.60;99.90
23873;DHT22;42884;50.718;4.630;2023-12-07T05:06:49;4.60;99.90
23873;DHT22;42884;50.718;4.630;2023-12-07T05:09:15;4.60;99.90
23873;DHT22;42884;50.718;4.630;2023-12-07T05:11:40;4.60;99.90
23873;DHT22;42884;50.718;4.630;2023-12-07T05:14:06;4.50;99.90
23873;DHT22;42884;50.718;4.630;2023-12-07T05:16:32;4.40;99.90
23873;DHT22;42884;50.718;4.630;2023-12-07T05:18:58;4.50;99.90
23873;DHT22;42884;50.718;4.630;2023-12-07T05:21:23;4.60;99.90
23873;DHT22;42884;50.718;4.630;2023-12-07T05:23:50;4.50;99.90
23873;DHT22;42884;50.718;4.630;2023-12-07T05:26:15;4.60;99.90
23873;DHT22;42884;50.718;4.630;2023-12-07T05:28:41;4.60;99.90
23873;DHT22;42884;50.718;4.630;2023-12-07T05:31:06;4.60;99.90
23873;DHT22;42884;50.718;4.630;2023-12-07T05:33:32;4.40;99.90
23873;DHT22;42884;50.718;4.630;2023-12-07T05:35:58;4.40;99.90
23873;DHT22;42884;50.718;4.630;2023-12-07T05:38:25;4.40;99.90
23873;DHT22;42884;50.718;4.630;2023-12-07T05:40:51;4.40;99.90
23873;DHT22;42884;50.718;4.630;2023-12-07T05:43:17;4.50;99.90
23873;DHT22;42884;50.718;4.630;2023-12-07T05:45:42;4.50;99.90
23873;DHT22;42884;50.718;4.630;2023-12-07T05:48:08;4.50;99.90
23873;DHT22;42884;50.718;4.630;2023-12-07T05:50:33;4.40;99.90
23873;DHT22;42884;50.718;4.630;2023-12-07T05:52:59;4.50;99.90
23873;DHT22;42884;50.718;4.630;2023-12-07T05:55:25;4.60;99.90
23873;DHT22;42884;50.718;4.630;2023-12-07T05:57:50;4.60;99.90
23873;DHT22;42884;50.718;4.630;2023-12-07T06:00:17;4.60;99.90
23873;DHT22;42884;50.718;4.630;2023-12-07T06:02:44;4.50;99.90
23873;DHT22;42884;50.718;4.630;2023-12-07T06:05:10;4.50;99.90
23873;DHT22;42884;50.718;4.630;2023-12-07T06:07:36;4.40;99.90
23873;DHT22;42884;50.718;4.630;2023-12-07T06:10:02;4.20;99.90
23873;DHT22;42884;50.718;4.630;2023-12-07T06:12:27;4.20;99.90
23873;DHT22;42884;50.718;4.630;2023-12-07T06:14:53;4.20;99.90
23873;DHT22;42884;50.718;4.630;2023-12-07T06:17:19;4.10;99.90
23873;DHT22;42884;50.718;4.630;2023-12-07T06:19:45;4.10;99.90
23873;DHT22;42884;50.718;4.630;2023-12-07T06:22:10;4.10;99.90
23873;DHT22;42884;50.718;4.630;2023-12-07T06:24:36;4.10;99.90
23873;DHT22;42884;50.718;4.630;2023-12-07T06:27:02;4.10;99.90
23873;DHT22;42884;50.718;4.630;2023-12-07T06:29:27;4.10;99.90
23873;DHT22;42884;50.718;4.630;2023-12-07T06:31:54;4.00;99.90
23873;DHT22;42884;50.718;4.630;2023-12-07T06:34:20;4.00;99.90
23873;DHT22;42884;50.718;4.630;2023-12-07T06:36:45;4.00;99.90
23873;DHT22;42884;50.718;4.630;2023-12-07T06:39:13;4.00;99.90
23873;DHT22;42884;50.718;4.630;2023-12-07T06:41:39;4.00;99.90
23873;DHT22;42884;50.718;4.630;2023-12-07T06:44:04;4.00;99.90
23873;DHT22;42884;50.718;4.630;2023-12-07T06:46:30;4.00;99.90
23873;DHT22;42884;50.718;4.630;2023-12-07T06:48:55;4.00;99.90
23873;DHT22;42884;50.718;4.630;2023-12-07T06:51:21;4.00;99.90
23873;DHT22;42884;50.718;4.630;2023-12-07T06:53:47;3.90;99.90
23873;DHT22;42884;50.718;4.630;2023-12-07T06:56:12;4.00;99.90
23873;DHT22;42884;50.718;4.630;2023-12-07T06:58:38;3.90;99.90
23873;DHT22;42884;50.718;4.630;2023-12-07T07:01:03;3.90;99.90
23873;DHT22;42884;50.718;4.630;2023-12-07T07:03:29;3.90;99.90
23873;DHT22;42884;50.718;4.630;2023-12-07T07:05:55;4.00;99.90
23873;DHT22;42884;50.718;4.630;2023-12-07T07:08:20;3.90;99.90
23873;DHT22;42884;50.718;4.630;2023-12-07T07:10:46;3.90;99.90
23873;DHT22;42884;50.718;4.630;2023-12-07T07:13:14;3.90;99.90
23873;DHT22;42884;50.718;4.630;2023-12-07T07:15:41;3.90;99.90
23873;DHT22;42884;50.718;4.630;2023-12-07T07:18:07;3.80;99.90
23873;DHT22;42884;50.718;4.630;2023-12-07T07:20:33;3.80;99.90
23873;DHT22;42884;50.718;4.630;2023-12-07T07:22:59;3.80;99.90
23873;DHT22;42884;50.718;4.630;2023-12-07T07:25:24;3.80;99.90
23873;DHT22;42884;50.718;4.630;2023-12-07T07:27:50;3.80;99.90
23873;DHT22;42884;50.718;4.630;2023-12-07T07:30:17;3.70;99.90
23873;DHT22;42884;50.718;4.630;2023-12-07T07:32:43;3.60;99.90
23873;DHT22;42884;50.718;4.630;2023-12-07T07:35:08;3.60;99.90
23873;DHT22;42884;50.718;4.630;2023-12-07T07:37:37;3.70;99.90
23873;DHT22;42884;50.718;4.630;2023-12-07T07:40:03;3.60;99.90
23873;DHT22;42884;50.718;4.630;2023-12-07T07:42:32;3.60;99.90
23873;DHT22;42884;50.718;4.630;2023-12-07T07:44:58;3.50;99.90
23873;DHT22;42884;50.718;4.630;2023-12-07T07:47:23;3.50;99.90
23873;DHT22;42884;50.718;4.630;2023-12-07T07:49:49;3.50;99.90
23873;DHT22;42884;50.718;4.630;2023-12-07T07:52:15;3.50;99.90
23873;DHT22;42884;50.718;4.630;2023-12-07T07:54:40;3.50;99.90
23873;DHT22;42884;50.718;4.630;2023-12-07T07:57:06;3.50;99.90
23873;DHT22;42884;50.718;4.630;2023-12-07T07:59:31;3.50;99.90
23873;DHT22;42884;50.718;4.630;2023-12-07T08:01:57;3.50;99.90
23873;DHT22;42884;50.718;4.630;2023-12-07T08:04:22;3.50;99.90
23873;DHT22;42884;50.718;4.630;2023-12-07T08:06:48;3.50;99.90
23873;DHT22;42884;50.718;4.630;2023-12-07T08:09:14;3.40;99.90
23873;DHT22;42884;50.718;4.630;2023-12-07T08:11:39;3.50;99.90
23873;DHT22;42884;50.718;4.630;2023-12-07T08:14:06;3.50;99.90
23873;DHT22;42884;50.718;4.630;2023-12-07T08:16:31;3.50;99.90
23873;DHT22;42884;50.718;4.630;2023-12-07T08:18:57;3.50;99.90
23873;DHT22;42884;50.718;4.630;2023-12-07T08:21:23;3.50;99.90
23873;DHT22;42884;50.718;4.630;2023-12-07T08:23:49;3.50;99.90
23873;DHT22;42884;50.718;4.630;2023-12-07T08:26:16;3.50;99.90
23873;DHT22;42884;50.718;4.630;2023-12-07T08:28:42;3.50;99.90
23873;DHT22;42884;50.718;4.630;2023-12-07T08:31:08;3.50;99.90
23873;DHT22;42884;50.718;4.630;2023-12-07T08:33:33;3.60;99.90
23873;DHT22;42884;50.718;4.630;2023-12-07T08:36:05;3.70;99.90
23873;DHT22;42884;50.718;4.630;2023-12-07T08:38:31;3.80;99.90
23873;DHT22;42884;50.718;4.630;2023-12-07T08:40:56;3.90;99.90
23873;DHT22;42884;50.718;4.630;2023-12-07T08:43:23;4.00;99.90
23873;DHT22;42884;50.718;4.630;2023-12-07T08:45:52;4.10;99.90
23873;DHT22;42884;50.718;4.630;2023-12-07T08:48:21;4.00;99.90
23873;DHT22;42884;50.718;4.630;2023-12-07T08:50:46;4.00;99.90
23873;DHT22;42884;50.718;4.630;2023-12-07T08:53:12;4.10;99.90
23873;DHT22;42884;50.718;4.630;2023-12-07T08:55:37;4.20;99.90
23873;DHT22;42884;50.718;4.630;2023-12-07T08:58:03;4.30;99.90
23873;DHT22;42884;50.718;4.630;2023-12-07T09:00:32;4.30;99.90
23873;DHT22;42884;50.718;4.630;2023-12-07T09:02:57;4.40;99.90
23873;DHT22;42884;50.718;4.630;2023-12-07T09:05:23;4.40;99.90
23873;DHT22;42884;50.718;4.630;2023-12-07T09:07:49;4.40;99.90
23873;DHT22;42884;50.718;4.630;2023-12-07T09:10:14;4.50;99.90
23873;DHT22;42884;50.718;4.630;2023-12-07T09:12:40;4.60;99.90
23873;DHT22;42884;50.718;4.630;2023-12-07T09:15:06;4.70;99.90
23873;DHT22;42884;50.718;4.630;2023-12-07T09:17:35;4.80;99.90
23873;DHT22;42884;50.718;4.630;2023-12-07T09:20:01;4.80;99.90
23873;DHT22;42884;50.718;4.630;2023-12-07T09:22:26;4.90;99.90
23873;DHT22;42884;50.718;4.630;2023-12-07T09:24:52;4.80;99.90
23873;DHT22;42884;50.718;4.630;2023-12-07T09:27:17;4.90;99.90
23873;DHT22;42884;50.718;4.630;2023-12-07T09:29:43;5.00;99.90
23873;DHT22;42884;50.718;4.630;2023-12-07T09:32:08;5.00;99.90
23873;DHT22;42884;50.718;4.630;2023-12-07T09:34:34;5.00;99.90
23873;DHT22;42884;50.718;4.630;2023-12-07T09:37:07;5.10;99.90
23873;DHT22;42884;50.718;4.630;2023-12-07T09:39:33;5.10;99.90
23873;DHT22;42884;50.718;4.630;2023-12-07T09:41:59;5.10;99.90
23873;DHT22;42884;50.718;4.630;2023-12-07T09:44:26;5.30;99.90
23873;DHT22;42884;50.718;4.630;2023-12-07T09:46:51;5.20;99.90
23873;DHT22;42884;50.718;4.630;2023-12-07T09:49:17;5.20;99.90
23873;DHT22;42884;50.718;4.630;2023-12-07T09:51:43;5.30;99.90
23873;DHT22;42884;50.718;4.630;2023-12-07T09:54:09;5.40;99.90
23873;DHT22;42884;50.718;4.630;2023-12-07T09:56:36;5.50;99.90
23873;DHT22;42884;50.718;4.630;2023-12-07T09:59:01;5.70;99.90
23873;DHT22;42884;50.718;4.630;2023-12-07T10:01:30;5.70;99.90
23873;DHT22;42884;50.718;4.630;2023-12-07T10:06:44;5.70;99.90
23873;DHT22;42884;50.718;4.630;2023-12-07T10:09:11;5.70;99.90
23873;DHT22;42884;50.718;4.630;2023-12-07T10:11:37;5.80;99.90
23873;DHT22;42884;50.718;4.630;2023-12-07T10:14:02;5.80;99.90
23873;DHT22;42884;50.718;4.630;2023-12-07T10:16:28;5.80;99.90
23873;DHT22;42884;50.718;4.630;2023-12-07T10:18:53;5.80;99.90
23873;DHT22;42884;50.718;4.630;2023-12-07T10:21:30;5.90;99.90
23873;DHT22;42884;50.718;4.630;2023-12-07T10:23:56;5.90;99.90
23873;DHT22;42884;50.718;4.630;2023-12-07T10:26:22;5.90;99.90
23873;DHT22;42884;50.718;4.630;2023-12-07T10:28:48;5.80;99.90
23873;DHT22;42884;50.718;4.630;2023-12-07T10:31:18;5.90;99.90
23873;DHT22;42884;50.718;4.630;2023-12-07T10:33:47;6.00;99.90
23873;DHT22;42884;50.718;4.630;2023-12-07T10:36:13;6.50;99.90
23873;DHT22;42884;50.718;4.630;2023-12-07T10:38:38;6.60;99.90
23873;DHT22;42884;50.718;4.630;2023-12-07T10:41:07;6.90;99.90
23873;DHT22;42884;50.718;4.630;2023-12-07T10:43:36;7.10;99.90
23873;DHT22;42884;50.718;4.630;2023-12-07T10:46:02;7.50;99.90
23873;DHT22;42884;50.718;4.630;2023-12-07T10:48:30;7.60;99.90
23873;DHT22;42884;50.718;4.630;2023-12-07T10:50:57;7.60;99.90
23873;DHT22;42884;50.718;4.630;2023-12-07T10:53:29;7.70;99.90
23873;DHT22;42884;50.718;4.630;2023-12-07T10:56:01;7.70;99.90
23873;DHT22;42884;50.718;4.630;2023-12-07T10:58:27;7.60;99.90
23873;DHT22;42884;50.718;4.630;2023-12-07T11:00:53;7.40;99.90
23873;DHT22;42884;50.718;4.630;2023-12-07T11:03:19;7.50;99.90
23873;DHT22;42884;50.718;4.630;2023-12-07T11:05:49;7.70;99.90
23873;DHT22;42884;50.718;4.630;2023-12-07T11:08:19;7.70;99.90
23873;DHT22;42884;50.718;4.630;2023-12-07T11:10:57;7.60;99.90
23873;DHT22;42884;50.718;4.630;2023-12-07T11:13:27;7.70;99.90
23873;DHT22;42884;50.718;4.630;2023-12-07T11:15:54;7.60;99.90
23873;DHT22;42884;50.718;4.630;2023-12-07T11:18:21;7.60;99.90
23873;DHT22;42884;50.718;4.630;2023-12-07T11:20:46;7.90;99.90
23873;DHT22;42884;50.718;4.630;2023-12-07T11:23:16;8.30;99.90
23873;DHT22;42884;50.718;4.630;2023-12-07T11:25:43;8.30;99.90
23873;DHT22;42884;50.718;4.630;2023-12-07T11:28:10;8.20;99.90
23873;DHT22;42884;50.718;4.630;2023-12-07T11:30:36;8.30;99.90
23873;DHT22;42884;50.718;4.630;2023-12-07T11:33:05;8.30;99.90
23873;DHT22;42884;50.718;4.630;2023-12-07T11:35:31;8.30;99.90
23873;DHT22;42884;50.718;4.630;2023-12-07T11:38:00;8.30;99.90
23873;DHT22;42884;50.718;4.630;2023-12-07T11:40:28;8.30;99.90
23873;DHT22;42884;50.718;4.630;2023-12-07T11:42:54;8.10;99.90
23873;DHT22;42884;50.718;4.630;2023-12-07T11:48:11;7.90;99.90
23873;DHT22;42884;50.718;4.630;2023-12-07T11:50:45;8.10;99.90
23873;DHT22;42884;50.718;4.630;2023-12-07T11:53:20;8.00;99.90
23873;DHT22;42884;50.718;4.630;2023-12-07T11:55:46;8.20;99.90
23873;DHT22;42884;50.718;4.630;2023-12-07T11:58:12;8.00;99.90
23873;DHT22;42884;50.718;4.630;2023-12-07T12:00:38;7.60;99.90
23873;DHT22;42884;50.718;4.630;2023-12-07T12:03:05;7.80;99.90
23873;DHT22;42884;50.718;4.630;2023-12-07T12:05:31;7.60;99.90
23873;DHT22;42884;50.718;4.630;2023-12-07T12:07:56;7.70;99.90
23873;DHT22;42884;50.718;4.630;2023-12-07T12:10:22;7.80;99.90
23873;DHT22;42884;50.718;4.630;2023-12-07T12:12:53;7.80;99.90
23873;DHT22;42884;50.718;4.630;2023-12-07T12:15:20;7.70;99.90
23873;DHT22;42884;50.718;4.630;2023-12-07T12:17:46;7.60;99.90
23873;DHT22;42884;50.718;4.630;2023-12-07T12:20:13;7.50;99.90
23873;DHT22;42884;50.718;4.630;2023-12-07T12:22:42;7.60;99.90
23873;DHT22;42884;50.718;4.630;2023-12-07T12:25:08;7.50;99.90
23873;DHT22;42884;50.718;4.630;2023-12-07T12:27:34;7.50;99.90
23873;DHT22;42884;50.718;4.630;2023-12-07T12:30:01;7.50;99.90
23873;DHT22;42884;50.718;4.630;2023-12-07T12:32:27;7.50;99.90
23873;DHT22;42884;50.718;4.630;2023-12-07T12:34:52;7.50;99.90
23873;DHT22;42884;50.718;4.630;2023-12-07T12:37:18;7.60;99.90
23873;DHT22;42884;50.718;4.630;2023-12-07T12:39:44;7.60;99.90
23873;DHT22;42884;50.718;4.630;2023-12-07T12:42:09;7.60;99.90
23873;DHT22;42884;50.718;4.630;2023-12-07T12:44:37;7.60;99.90
23873;DHT22;42884;50.718;4.630;2023-12-07T12:47:07;7.10;99.90
23873;DHT22;42884;50.718;4.630;2023-12-07T12:49:36;7.00;99.90
23873;DHT22;42884;50.718;4.630;2023-12-07T12:52:02;7.00;99.90
23873;DHT22;42884;50.718;4.630;2023-12-07T12:54:31;7.10;99.90
23873;DHT22;42884;50.718;4.630;2023-12-07T12:56:59;7.10;99.90
23873;DHT22;42884;50.718;4.630;2023-12-07T12:59:25;7.30;99.90
23873;DHT22;42884;50.718;4.630;2023-12-07T13:01:50;7.40;99.90
23873;DHT22;42884;50.718;4.630;2023-12-07T13:04:16;7.20;99.90
23873;DHT22;42884;50.718;4.630;2023-12-07T13:06:42;7.00;99.90
23873;DHT22;42884;50.718;4.630;2023-12-07T13:09:07;7.00;99.90
23873;DHT22;42884;50.718;4.630;2023-12-07T13:11:33;7.10;99.90
23873;DHT22;42884;50.718;4.630;2023-12-07T13:13:58;7.30;99.90
23873;DHT22;42884;50.718;4.630;2023-12-07T13:16:24;7.40;99.90
23873;DHT22;42884;50.718;4.630;2023-12-07T13:18:50;7.50;99.90
23873;DHT22;42884;50.718;4.630;2023-12-07T13:21:15;7.60;99.90
23873;DHT22;42884;50.718;4.630;2023-12-07T13:23:41;7.70;99.90
23873;DHT22;42884;50.718;4.630;2023-12-07T13:26:06;7.80;99.90
23873;DHT22;42884;50.718;4.630;2023-12-07T13:28:32;7.80;99.90
23873;DHT22;42884;50.718;4.630;2023-12-07T13:30:58;7.70;99.90
23873;DHT22;42884;50.718;4.630;2023-12-07T13:33:24;7.70;99.90
23873;DHT22;42884;50.718;4.630;2023-12-07T13:35:50;7.70;99.90
23873;DHT22;42884;50.718;4.630;2023-12-07T13:38:17;7.80;99.90
23873;DHT22;42884;50.718;4.630;2023-12-07T13:40:45;7.70;99.90
23873;DHT22;42884;50.718;4.630;2023-12-07T13:43:12;7.70;99.90
23873;DHT22;42884;50.718;4.630;2023-12-07T13:45:38;7.70;99.90
23873;DHT22;42884;50.718;4.630;2023-12-07T13:48:03;7.50;99.90
23873;DHT22;42884;50.718;4.630;2023-12-07T13:50:29;7.50;99.90
23873;DHT22;42884;50.718;4.630;2023-12-07T13:52:55;7.60;99.90
23873;DHT22;42884;50.718;4.630;2023-12-07T13:55:20;7.50;99.90
23873;DHT22;42884;50.718;4.630;2023-12-07T13:57:46;7.30;99.90
23873;DHT22;42884;50.718;4.630;2023-12-07T14:00:12;7.30;99.90
23873;DHT22;42884;50.718;4.630;2023-12-07T14:02:38;7.30;99.90
23873;DHT22;42884;50.718;4.630;2023-12-07T14:05:04;7.20;99.90
23873;DHT22;42884;50.718;4.630;2023-12-07T14:07:30;7.20;99.90
23873;DHT22;42884;50.718;4.630;2023-12-07T14:09:56;7.30;99.90
23873;DHT22;42884;50.718;4.630;2023-12-07T14:12:21;7.20;99.90
23873;DHT22;42884;50.718;4.630;2023-12-07T14:14:48;7.20;99.90
23873;DHT22;42884;50.718;4.630;2023-12-07T14:17:14;7.30;99.90
23873;DHT22;42884;50.718;4.630;2023-12-07T14:19:40;7.30;99.90
23873;DHT22;42884;50.718;4.630;2023-12-07T14:22:06;7.30;99.90
23873;DHT22;42884;50.718;4.630;2023-12-07T14:24:35;7.30;99.90
23873;DHT22;42884;50.718;4.630;2023-12-07T14:27:02;7.40;99.90
23873;DHT22;42884;50.718;4.630;2023-12-07T14:29:29;7.20;99.90
23873;DHT22;42884;50.718;4.630;2023-12-07T14:31:55;7.10;99.90
23873;DHT22;42884;50.718;4.630;2023-12-07T14:34:20;7.10;99.90
23873;DHT22;42884;50.718;4.630;2023-12-07T14:36:46;7.20;99.90
23873;DHT22;42884;50.718;4.630;2023-12-07T14:39:12;7.30;99.90
23873;DHT22;42884;50.718;4.630;2023-12-07T14:41:45;7.30;99.90
23873;DHT22;42884;50.718;4.630;2023-12-07T14:44:14;7.30;99.90
23873;DHT22;42884;50.718;4.630;2023-12-07T14:46:44;7.30;99.90
23873;DHT22;42884;50.718;4.630;2023-12-07T14:49:14;7.20;99.90
23873;DHT22;42884;50.718;4.630;2023-12-07T14:51:40;7.00;99.90
23873;DHT22;42884;50.718;4.630;2023-12-07T14:54:06;7.10;99.90
23873;DHT22;42884;50.718;4.630;2023-12-07T14:56:32;6.90;99.90
23873;DHT22;42884;50.718;4.630;2023-12-07T14:59:01;6.80;99.90
23873;DHT22;42884;50.718;4.630;2023-12-07T15:01:26;6.80;99.90
23873;DHT22;42884;50.718;4.630;2023-12-07T15:03:52;6.80;99.90
23873;DHT22;42884;50.718;4.630;2023-12-07T15:06:18;6.90;99.90
23873;DHT22;42884;50.718;4.630;2023-12-07T15:08:44;6.90;99.90
23873;DHT22;42884;50.718;4.630;2023-12-07T15:11:09;6.90;99.90
23873;DHT22;42884;50.718;4.630;2023-12-07T15:13:35;6.90;99.90
23873;DHT22;42884;50.718;4.630;2023-12-07T15:16:01;6.80;99.90
23873;DHT22;42884;50.718;4.630;2023-12-07T15:18:29;6.80;99.90
23873;DHT22;42884;50.718;4.630;2023-12-07T15:20:56;6.90;99.90
23873;DHT22;42884;50.718;4.630;2023-12-07T15:23:22;6.80;99.90
23873;DHT22;42884;50.718;4.630;2023-12-07T15:25:48;6.80;99.90
23873;DHT22;42884;50.718;4.630;2023-12-07T15:28:13;6.70;99.90
23873;DHT22;42884;50.718;4.630;2023-12-07T15:30:40;6.70;99.90
23873;DHT22;42884;50.718;4.630;2023-12-07T15:33:05;6.60;99.90
23873;DHT22;42884;50.718;4.630;2023-12-07T15:35:32;6.50;99.90
23873;DHT22;42884;50.718;4.630;2023-12-07T15:37:57;6.50;99.90
23873;DHT22;42884;50.718;4.630;2023-12-07T15:40:23;6.40;99.90
23873;DHT22;42884;50.718;4.630;2023-12-07T15:42:49;6.20;99.90
23873;DHT22;42884;50.718;4.630;2023-12-07T15:45:15;6.20;99.90
23873;DHT22;42884;50.718;4.630;2023-12-07T15:47:40;6.10;99.90
23873;DHT22;42884;50.718;4.630;2023-12-07T15:50:06;6.10;99.90